createdAt,value
2019-05-18T00:00:50.465Z,81.50
2019-05-18T00:03:18.854Z,81.64
2019-05-18T00:05:47.314Z,81.88
2019-05-18T00:08:15.733Z,82.26
2019-05-18T00:10:44.135Z,81.98
2019-05-18T00:13:12.519Z,81.82
2019-05-18T00:15:40.935Z,82.62
2019-05-18T00:18:09.338Z,83.82
2019-05-18T00:20:37.739Z,81.46
2019-05-18T00:23:06.221Z,82.15
2019-05-18T00:25:36.057Z,83.23
2019-05-18T00:28:04.526Z,82.17
2019-05-18T00:30:33.011Z,82.78
2019-05-18T00:33:01.412Z,82.26
2019-05-18T00:35:29.807Z,81.35
2019-05-18T00:37:58.234Z,83.14
2019-05-18T00:40:26.622Z,82.20
2019-05-18T00:42:55.014Z,81.59
2019-05-18T00:45:23.767Z,81.75
2019-05-18T00:47:52.158Z,82.76
2019-05-18T00:50:20.619Z,82.80
2019-05-18T00:52:49.031Z,82.22
2019-05-18T00:55:17.425Z,80.52
2019-05-18T00:57:45.818Z,80.53
2019-05-18T01:00:15.270Z,80.39
2019-05-18T01:02:43.664Z,81.51
2019-05-18T01:05:12.232Z,82.35
2019-05-18T01:07:40.848Z,82.35
2019-05-18T01:10:09.685Z,83.17
2019-05-18T01:12:38.087Z,83.33
2019-05-18T01:15:08.784Z,83.55
2019-05-18T01:17:37.234Z,83.24
2019-05-18T01:20:06.403Z,83.58
2019-05-18T01:22:35.015Z,83.98
2019-05-18T01:25:03.547Z,84.57
2019-05-18T01:27:31.941Z,84.84
2019-05-18T01:30:00.373Z,85.32
2019-05-18T01:32:29.030Z,85.65
2019-05-18T01:34:57.423Z,84.78
2019-05-18T01:37:25.910Z,84.13
2019-05-18T01:39:54.575Z,85.13
2019-05-18T01:42:22.959Z,83.82
2019-05-18T01:44:51.756Z,83.05
2019-05-18T01:47:20.151Z,83.65
2019-05-18T01:49:48.572Z,84.56
2019-05-18T01:52:17.040Z,83.85
2019-05-18T01:54:45.431Z,82.81
2019-05-18T01:57:13.897Z,82.16
2019-05-18T01:59:42.386Z,81.66
2019-05-18T02:02:10.784Z,81.53
2019-05-18T02:04:39.418Z,80.56
2019-05-18T02:07:07.839Z,80.54
2019-05-18T02:09:36.241Z,81.67
2019-05-18T02:12:04.622Z,82.84
2019-05-18T02:14:33.035Z,83.49
2019-05-18T02:17:01.464Z,83.24
2019-05-18T02:19:29.894Z,83.65
2019-05-18T02:21:58.385Z,83.62
2019-05-18T02:24:26.776Z,83.45
2019-05-18T02:26:55.173Z,83.46
2019-05-18T02:29:23.712Z,83.45
2019-05-18T02:31:52.115Z,83.16
2019-05-18T02:34:20.535Z,82.62
2019-05-18T02:36:48.915Z,82.67
2019-05-18T02:39:17.307Z,82.14
2019-05-18T02:41:45.700Z,82.17
2019-05-18T02:44:14.191Z,82.37
2019-05-18T02:46:42.598Z,82.52
2019-05-18T02:49:11.289Z,82.87
2019-05-18T02:51:40.066Z,83.09
2019-05-18T02:54:08.534Z,83.27
2019-05-18T02:56:37.076Z,82.94
2019-05-18T02:59:05.496Z,82.86
2019-05-18T03:01:33.892Z,82.97
2019-05-18T03:04:02.282Z,82.84
2019-05-18T03:06:31.165Z,82.62
2019-05-18T03:08:59.561Z,81.72
2019-05-18T03:11:27.952Z,82.57
2019-05-18T03:13:56.576Z,83.01
2019-05-18T03:16:24.965Z,83.51
2019-05-18T03:19:07.593Z,83.06
2019-05-18T03:21:23.876Z,82.74
2019-05-18T03:23:52.262Z,82.58
2019-05-18T03:26:20.658Z,83.26
2019-05-18T03:28:49.147Z,82.98
2019-05-18T03:31:17.803Z,82.72
2019-05-18T03:33:46.198Z,82.25
2019-05-18T03:36:14.694Z,82.66
2019-05-18T03:38:43.079Z,83.60
2019-05-18T03:41:11.472Z,84.32
2019-05-18T03:43:39.962Z,83.76
2019-05-18T03:46:08.351Z,83.53
2019-05-18T03:48:36.745Z,84.19
2019-05-18T03:51:06.179Z,83.93
2019-05-18T03:53:34.575Z,82.88
2019-05-18T03:56:03.004Z,82.26
2019-05-18T03:58:31.405Z,82.61
2019-05-18T04:00:59.807Z,82.52
2019-05-18T04:03:28.206Z,82.74
2019-05-18T04:05:56.694Z,83.50
2019-05-18T04:08:25.076Z,84.20
2019-05-18T04:10:53.636Z,83.71
2019-05-18T04:13:22.063Z,83.21
2019-05-18T04:15:50.465Z,83.52
2019-05-18T04:18:18.852Z,82.59
2019-05-18T04:20:47.263Z,83.15
2019-05-18T04:23:15.652Z,83.35
2019-05-18T04:25:44.293Z,83.33
2019-05-18T04:28:12.749Z,82.92
2019-05-18T04:30:41.151Z,82.81
2019-05-18T04:33:09.555Z,82.68
2019-05-18T04:35:37.969Z,82.52
2019-05-18T04:38:06.362Z,82.42
2019-05-18T04:40:34.758Z,82.78
2019-05-18T04:43:03.259Z,82.98
2019-05-18T04:45:31.670Z,83.04
2019-05-18T04:48:00.058Z,83.05
2019-05-18T04:50:28.492Z,83.42
2019-05-18T04:52:56.899Z,83.17
2019-05-18T04:55:25.548Z,83.13
2019-05-18T04:57:53.975Z,83.18
2019-05-18T05:00:22.506Z,83.32
2019-05-18T05:02:50.835Z,83.60
2019-05-18T05:05:19.332Z,83.70
2019-05-18T05:07:47.727Z,83.44
2019-05-18T05:10:16.560Z,83.58
2019-05-18T05:12:45.045Z,83.33
2019-05-18T05:15:13.674Z,83.49
2019-05-18T05:17:42.067Z,84.07
2019-05-18T05:20:19.124Z,83.88
2019-05-18T05:22:40.682Z,84.08
2019-05-18T05:25:09.169Z,83.83
2019-05-18T05:27:37.920Z,83.87
2019-05-18T05:30:07.560Z,84.25
2019-05-18T05:32:35.964Z,84.24
2019-05-18T05:35:06.036Z,83.88
2019-05-18T05:37:34.711Z,83.45
2019-05-18T05:40:03.922Z,82.25
2019-05-18T05:42:32.428Z,81.06
2019-05-18T05:45:00.828Z,79.66
2019-05-18T05:47:29.234Z,79.59
2019-05-18T05:49:57.654Z,80.70
2019-05-18T05:52:26.044Z,80.20
2019-05-18T05:54:54.452Z,79.84
2019-05-18T05:57:22.940Z,79.64
2019-05-18T05:59:51.660Z,79.02
2019-05-18T06:02:20.061Z,78.14
2019-05-18T06:04:48.589Z,78.06
2019-05-18T06:07:17.299Z,79.70
2019-05-18T06:09:45.714Z,79.47
2019-05-18T06:12:14.498Z,79.27
2019-05-18T06:14:43.275Z,79.33
2019-05-18T06:17:11.974Z,78.98
2019-05-18T06:19:40.750Z,78.04
2019-05-18T06:22:09.154Z,78.46
2019-05-18T06:24:37.573Z,78.13
2019-05-18T06:27:06.315Z,77.79
2019-05-18T06:29:34.733Z,77.60
2019-05-18T06:32:03.119Z,78.49
2019-05-18T06:34:31.634Z,78.95
2019-05-18T06:37:00.029Z,78.20
2019-05-18T06:39:28.441Z,78.59
2019-05-18T06:41:56.966Z,76.84
2019-05-18T06:44:25.366Z,77.56
2019-05-18T06:46:53.768Z,77.05
2019-05-18T06:49:22.201Z,77.14
2019-05-18T06:51:50.767Z,77.17
2019-05-18T06:54:19.314Z,76.74
2019-05-18T06:56:48.701Z,76.34
2019-05-18T06:59:17.243Z,75.37
2019-05-18T07:01:45.643Z,74.82
2019-05-18T07:04:14.065Z,74.41
2019-05-18T07:06:42.474Z,73.55
2019-05-18T07:09:14.019Z,72.68
2019-05-18T07:11:41.121Z,72.94
2019-05-18T07:14:09.569Z,72.65
2019-05-18T07:16:38.741Z,73.06
2019-05-18T07:19:07.280Z,71.54
2019-05-18T07:21:35.681Z,70.92
2019-05-18T07:24:04.253Z,70.44
2019-05-18T07:26:32.979Z,69.02
2019-05-18T07:29:05.543Z,69.56
2019-05-18T07:31:31.908Z,68.88
2019-05-18T07:34:00.329Z,69.00
2019-05-18T07:36:28.732Z,69.66
2019-05-18T07:38:57.119Z,68.25
2019-05-18T07:41:25.624Z,67.62
2019-05-18T07:43:54.024Z,68.42
2019-05-18T07:46:22.448Z,66.94
2019-05-18T07:48:51.092Z,66.23
2019-05-18T07:51:19.490Z,66.86
2019-05-18T07:53:47.973Z,68.65
2019-05-18T07:56:16.607Z,67.86
2019-05-18T07:58:45.003Z,68.76
2019-05-18T08:01:13.397Z,68.70
2019-05-18T08:03:41.807Z,67.91
2019-05-18T08:06:10.366Z,67.74
2019-05-18T08:08:39.087Z,65.50
2019-05-18T08:11:07.781Z,64.82
2019-05-18T08:13:36.164Z,64.48
2019-05-18T08:16:04.711Z,63.55
2019-05-18T08:18:33.124Z,61.94
2019-05-18T08:21:01.514Z,63.00
2019-05-18T08:23:29.907Z,60.61
2019-05-18T08:25:58.400Z,61.24
2019-05-18T08:28:26.793Z,60.23
2019-05-18T08:30:55.190Z,60.36
2019-05-18T08:33:23.611Z,61.68
2019-05-18T08:35:52.036Z,60.26
2019-05-18T08:38:20.416Z,59.60
2019-05-18T08:40:49.277Z,60.71
2019-05-18T08:43:17.672Z,61.16
2019-05-18T08:45:46.077Z,60.21
2019-05-18T08:48:14.505Z,59.60
2019-05-18T08:50:42.912Z,60.80
2019-05-18T08:53:11.306Z,60.61
2019-05-18T08:55:39.717Z,60.21
2019-05-18T08:58:08.114Z,58.90
2019-05-18T09:00:36.770Z,59.57
2019-05-18T09:03:05.299Z,60.31
2019-05-18T09:05:33.708Z,61.04
2019-05-18T09:08:02.093Z,61.31
2019-05-18T09:10:30.517Z,62.71
2019-05-18T09:12:59.174Z,61.56
2019-05-18T09:15:27.565Z,61.73
2019-05-18T09:17:56.238Z,59.34
2019-05-18T09:20:24.651Z,59.38
2019-05-18T09:22:53.021Z,58.17
2019-05-18T09:25:21.505Z,59.07
2019-05-18T09:27:49.903Z,58.21
2019-05-18T09:30:18.630Z,58.09
2019-05-18T09:32:47.430Z,58.36
2019-05-18T09:35:16.165Z,53.17
2019-05-18T09:37:44.559Z,53.65
2019-05-18T09:40:13.047Z,53.61
2019-05-18T09:42:42.474Z,50.63
2019-05-18T09:45:11.913Z,51.46
2019-05-18T09:47:40.670Z,50.61
2019-05-18T09:50:09.703Z,51.27
2019-05-18T09:52:46.355Z,48.48
2019-05-18T09:55:08.925Z,47.97
2019-05-18T09:57:37.315Z,47.65
2019-05-18T10:00:11.212Z,49.80
2019-05-18T10:02:39.839Z,48.13
2019-05-18T10:05:08.536Z,48.65
2019-05-18T10:07:36.922Z,49.58
2019-05-18T10:10:08.004Z,51.30
2019-05-18T10:12:36.400Z,49.34
2019-05-18T10:15:07.383Z,51.75
2019-05-18T10:17:35.886Z,50.47
2019-05-18T10:20:10.044Z,51.05
2019-05-18T10:22:51.177Z,52.41
2019-05-18T10:25:09.702Z,49.64
2019-05-18T10:27:38.073Z,49.86
2019-05-18T10:30:09.174Z,49.51
2019-05-18T10:32:37.584Z,48.75
2019-05-18T10:35:07.516Z,47.56
2019-05-18T10:37:35.908Z,48.32
2019-05-18T10:40:07.707Z,48.68
2019-05-18T10:42:36.094Z,48.59
2019-05-18T10:45:06.383Z,48.45
2019-05-18T10:47:34.813Z,47.36
2019-05-18T10:50:03.287Z,46.89
2019-05-18T10:52:31.672Z,46.80
2019-05-18T10:55:00.094Z,47.03
2019-05-18T10:57:28.486Z,48.28
2019-05-18T10:59:56.879Z,48.14
2019-05-18T11:02:25.599Z,48.07
2019-05-18T11:04:53.993Z,49.90
2019-05-18T11:07:22.404Z,48.43
2019-05-18T11:09:50.828Z,49.69
2019-05-18T11:12:19.223Z,49.77
2019-05-18T11:14:47.628Z,49.43
2019-05-18T11:17:16.050Z,48.60
2019-05-18T11:19:44.760Z,48.76
2019-05-18T11:22:13.148Z,50.15
2019-05-18T11:24:41.552Z,51.77
2019-05-18T11:27:09.955Z,53.13
2019-05-18T11:29:38.347Z,52.04
2019-05-18T11:32:07.188Z,52.01
2019-05-18T11:34:35.582Z,53.03
2019-05-18T11:37:03.982Z,52.89
2019-05-18T11:39:32.412Z,54.01
2019-05-18T11:42:00.808Z,53.13
2019-05-18T11:44:29.464Z,52.36
2019-05-18T11:46:57.889Z,53.34
2019-05-18T11:49:29.040Z,52.81
2019-05-18T11:51:56.405Z,55.65
2019-05-18T11:54:24.818Z,52.97
2019-05-18T11:56:53.235Z,55.54
2019-05-18T11:59:21.603Z,52.20
2019-05-18T12:01:50.181Z,54.46
2019-05-18T12:04:18.581Z,54.14
2019-05-18T12:06:46.968Z,54.14
2019-05-18T12:09:15.392Z,51.97
2019-05-18T12:11:43.781Z,50.72
2019-05-18T12:14:12.181Z,49.89
2019-05-18T12:16:40.614Z,48.96
2019-05-18T12:19:09.021Z,48.73
2019-05-18T12:21:37.416Z,50.41
2019-05-18T12:24:14.633Z,49.58
2019-05-18T12:26:36.039Z,50.37
2019-05-18T12:29:04.431Z,48.55
2019-05-18T12:31:32.825Z,47.88
2019-05-18T12:34:01.259Z,49.07
2019-05-18T12:36:29.648Z,46.47
2019-05-18T12:38:58.038Z,46.11
2019-05-18T12:41:29.263Z,45.55
2019-05-18T12:43:57.789Z,45.15
2019-05-18T12:46:26.250Z,45.04
2019-05-18T12:48:54.785Z,47.16
2019-05-18T12:51:23.346Z,43.60
2019-05-18T12:53:51.765Z,42.08
2019-05-18T12:56:20.320Z,43.62
2019-05-18T12:58:48.730Z,41.81
2019-05-18T13:01:17.125Z,40.63
2019-05-18T13:03:45.540Z,40.16
2019-05-18T13:06:14.606Z,41.16
2019-05-18T13:08:43.024Z,39.44
2019-05-18T13:11:11.420Z,40.70
2019-05-18T13:13:39.812Z,40.87
2019-05-18T13:16:08.224Z,38.87
2019-05-18T13:18:36.685Z,40.24
2019-05-18T13:21:05.082Z,40.19
2019-05-18T13:23:33.501Z,40.04
2019-05-18T13:26:01.883Z,40.74
2019-05-18T13:28:30.273Z,40.17
2019-05-18T13:30:58.692Z,41.07
2019-05-18T13:33:27.088Z,41.47
2019-05-18T13:35:55.478Z,42.77
2019-05-18T13:38:23.907Z,43.12
2019-05-18T13:40:52.291Z,42.98
2019-05-18T13:43:20.676Z,41.41
2019-05-18T13:45:49.109Z,41.13
2019-05-18T13:48:17.492Z,41.98
2019-05-18T13:50:45.891Z,40.29
2019-05-18T13:53:14.305Z,37.52
2019-05-18T13:55:42.699Z,38.55
2019-05-18T13:58:11.408Z,39.66
2019-05-18T14:00:40.300Z,38.19
2019-05-18T14:03:09.046Z,37.87
2019-05-18T14:05:37.438Z,38.56
2019-05-18T14:08:05.859Z,40.06
2019-05-18T14:10:34.644Z,40.15
2019-05-18T14:13:03.034Z,42.51
2019-05-18T14:15:31.523Z,43.15
2019-05-18T14:18:00.171Z,44.92
2019-05-18T14:20:28.873Z,44.88
2019-05-18T14:22:57.362Z,46.81
2019-05-18T14:25:25.745Z,43.80
2019-05-18T14:27:54.139Z,43.67
2019-05-18T14:30:23.776Z,44.65
2019-05-18T14:32:52.163Z,41.25
2019-05-18T14:35:20.551Z,42.63
2019-05-18T14:37:48.968Z,41.80
2019-05-18T14:40:17.430Z,41.73
2019-05-18T14:42:45.831Z,44.76
2019-05-18T14:45:14.501Z,46.43
2019-05-18T14:47:42.898Z,46.86
2019-05-18T14:50:11.529Z,48.34
2019-05-18T14:52:39.957Z,47.23
2019-05-18T14:55:09.698Z,48.28
2019-05-18T14:57:38.089Z,48.03
2019-05-18T15:00:07.750Z,45.95
2019-05-18T15:02:36.244Z,48.38
2019-05-18T15:05:07.379Z,47.24
2019-05-18T15:07:35.798Z,47.12
2019-05-18T15:10:06.727Z,45.20
2019-05-18T15:12:35.119Z,47.49
2019-05-18T15:15:04.813Z,49.14
2019-05-18T15:17:33.196Z,48.42
2019-05-18T15:20:01.601Z,46.78
2019-05-18T15:22:30.017Z,47.32
2019-05-18T15:24:58.411Z,45.92
2019-05-18T15:27:26.810Z,50.90
2019-05-18T15:29:55.529Z,50.03
2019-05-18T15:32:23.928Z,49.75
2019-05-18T15:34:52.592Z,49.72
2019-05-18T15:37:21.040Z,49.51
2019-05-18T15:39:49.412Z,52.44
2019-05-18T15:42:17.816Z,53.08
2019-05-18T15:44:46.250Z,53.14
2019-05-18T15:47:14.634Z,50.80
2019-05-18T15:49:43.030Z,50.38
2019-05-18T15:52:11.458Z,50.41
2019-05-18T15:54:39.843Z,49.79
2019-05-18T15:57:08.522Z,50.92
2019-05-18T15:59:37.001Z,49.55
2019-05-18T16:02:06.555Z,52.32
2019-05-18T16:04:35.604Z,49.29
2019-05-18T16:07:04.014Z,49.67
2019-05-18T16:09:32.669Z,51.09
2019-05-18T16:12:01.133Z,50.41
2019-05-18T16:14:29.629Z,49.46
2019-05-18T16:16:58.016Z,50.02
2019-05-18T16:19:26.403Z,49.14
2019-05-18T16:21:54.920Z,49.84
2019-05-18T16:24:23.302Z,50.51
2019-05-18T16:26:51.693Z,49.13
2019-05-18T16:29:20.496Z,51.59
2019-05-18T16:31:48.887Z,51.87
2019-05-18T16:34:17.277Z,53.51
2019-05-18T16:36:45.694Z,51.57
2019-05-18T16:39:14.088Z,53.06
2019-05-18T16:41:42.481Z,53.51
2019-05-18T16:44:11.192Z,52.70
2019-05-18T16:46:39.588Z,55.54
2019-05-18T16:49:07.983Z,53.30
2019-05-18T16:51:36.407Z,51.63
2019-05-18T16:54:04.812Z,52.38
2019-05-18T16:56:35.115Z,52.68
2019-05-18T16:59:03.734Z,52.22
2019-05-18T17:01:32.124Z,52.51
2019-05-18T17:04:00.527Z,51.25
2019-05-18T17:06:29.160Z,47.65
2019-05-18T17:08:57.621Z,47.84
2019-05-18T17:11:26.015Z,49.69
2019-05-18T17:13:54.425Z,52.39
2019-05-18T17:16:22.818Z,50.42
2019-05-18T17:18:51.217Z,52.09
2019-05-18T17:21:19.622Z,52.89
2019-05-18T17:23:48.061Z,51.50
2019-05-18T17:26:16.403Z,50.28
2019-05-18T17:28:45.379Z,50.19
2019-05-18T17:31:13.772Z,49.72
2019-05-18T17:33:42.161Z,50.72
2019-05-18T17:36:10.639Z,50.10
2019-05-18T17:38:38.978Z,50.68
2019-05-18T17:41:07.374Z,51.16
2019-05-18T17:43:35.805Z,51.05
2019-05-18T17:46:04.275Z,51.32
2019-05-18T17:48:32.691Z,50.80
2019-05-18T17:51:01.165Z,50.99
2019-05-18T17:53:29.583Z,51.50
2019-05-18T17:55:58.064Z,52.42
2019-05-18T17:58:26.567Z,53.49
2019-05-18T18:00:54.969Z,53.20
2019-05-18T18:03:23.362Z,53.48
2019-05-18T18:05:52.062Z,54.72
2019-05-18T18:08:20.524Z,54.29
2019-05-18T18:10:48.906Z,55.39
2019-05-18T18:13:17.346Z,54.22
2019-05-18T18:15:45.747Z,54.89
2019-05-18T18:18:14.143Z,54.94
2019-05-18T18:20:42.831Z,54.49
2019-05-18T18:23:11.242Z,54.43
2019-05-18T18:25:39.639Z,55.41
2019-05-18T18:28:08.053Z,54.10
2019-05-18T18:30:36.763Z,55.90
2019-05-18T18:33:05.153Z,56.10
2019-05-18T18:35:33.559Z,55.90
2019-05-18T18:38:01.989Z,58.16
2019-05-18T18:40:30.372Z,59.24
2019-05-18T18:42:58.784Z,58.80
2019-05-18T18:45:27.174Z,59.34
2019-05-18T18:47:55.570Z,59.42
2019-05-18T18:50:24.065Z,59.74
2019-05-18T18:52:52.461Z,59.98
2019-05-18T18:55:20.915Z,59.45
2019-05-18T18:57:49.527Z,61.14
2019-05-18T19:00:18.739Z,61.59
2019-05-18T19:02:47.132Z,61.58
2019-05-18T19:05:15.622Z,62.87
2019-05-18T19:07:44.042Z,63.60
2019-05-18T19:10:12.838Z,65.15
2019-05-18T19:12:41.264Z,65.77
2019-05-18T19:15:10.509Z,65.57
2019-05-18T19:17:38.886Z,66.70
2019-05-18T19:20:08.231Z,67.48
2019-05-18T19:22:36.688Z,67.48
2019-05-18T19:25:05.615Z,68.27
2019-05-18T19:27:34.392Z,68.89
2019-05-18T19:30:03.261Z,69.99
2019-05-18T19:32:31.739Z,71.46
2019-05-18T19:35:00.144Z,72.73
2019-05-18T19:37:28.538Z,73.05
2019-05-18T19:39:56.939Z,72.87
2019-05-18T19:42:25.921Z,74.72
2019-05-18T19:44:54.314Z,74.58
2019-05-18T19:47:22.706Z,75.83
2019-05-18T19:49:51.242Z,75.28
2019-05-18T19:52:19.630Z,75.56
2019-05-18T19:54:48.029Z,76.47
2019-05-18T19:57:16.449Z,76.35
2019-05-18T19:59:44.840Z,78.10
2019-05-18T20:02:13.657Z,77.69
2019-05-18T20:04:42.410Z,77.50
2019-05-18T20:07:10.805Z,78.13
2019-05-18T20:09:39.469Z,77.95
2019-05-18T20:12:07.885Z,77.72
2019-05-18T20:14:36.279Z,77.69
2019-05-18T20:17:04.718Z,77.99
2019-05-18T20:19:39.144Z,78.87
2019-05-18T20:22:03.254Z,78.21
2019-05-18T20:24:31.643Z,77.64
2019-05-18T20:27:00.318Z,79.19
2019-05-18T20:29:28.703Z,81.01
2019-05-18T20:31:57.090Z,81.42
2019-05-18T20:34:25.579Z,80.50
2019-05-18T20:36:53.968Z,80.06
2019-05-18T20:39:22.367Z,79.67
2019-05-18T20:41:50.851Z,78.62
2019-05-18T20:44:19.249Z,79.19
2019-05-18T20:46:47.640Z,79.57
2019-05-18T20:49:16.061Z,79.21
2019-05-18T20:51:44.451Z,78.86
2019-05-18T20:54:12.846Z,79.02
2019-05-18T20:56:41.255Z,78.40
2019-05-18T20:59:10.009Z,77.54
2019-05-18T21:01:38.399Z,77.70
2019-05-18T21:04:06.902Z,77.88
2019-05-18T21:06:35.293Z,78.12
2019-05-18T21:09:05.028Z,78.56
2019-05-18T21:11:33.527Z,78.85
2019-05-18T21:14:01.921Z,78.83
2019-05-18T21:16:30.310Z,78.42
2019-05-18T21:18:58.807Z,78.43
2019-05-18T21:21:27.255Z,79.46
2019-05-18T21:23:55.631Z,79.33
2019-05-18T21:26:24.046Z,79.31
2019-05-18T21:28:56.421Z,79.28
2019-05-18T21:31:22.915Z,78.98
2019-05-18T21:33:51.332Z,79.45
2019-05-18T21:36:19.733Z,79.68
2019-05-18T21:38:48.131Z,79.65
2019-05-18T21:41:16.565Z,79.77
2019-05-18T21:43:44.937Z,78.83
2019-05-18T21:46:13.326Z,79.26
2019-05-18T21:48:41.748Z,79.22
2019-05-18T21:51:10.147Z,79.66
2019-05-18T21:53:38.543Z,79.34
2019-05-18T21:56:07.047Z,80.54
2019-05-18T21:58:35.698Z,80.93
2019-05-18T22:01:04.925Z,80.95
2019-05-18T22:03:33.385Z,80.62
2019-05-18T22:06:01.773Z,80.90
2019-05-18T22:08:30.128Z,81.51
2019-05-18T22:10:58.608Z,81.96
2019-05-18T22:13:27.002Z,81.70
2019-05-18T22:15:55.380Z,81.38
2019-05-18T22:18:25.061Z,82.36
2019-05-18T22:20:53.526Z,82.43
2019-05-18T22:23:21.926Z,82.48
2019-05-18T22:25:50.338Z,82.73
2019-05-18T22:28:18.733Z,82.41
2019-05-18T22:30:47.130Z,81.66
2019-05-18T22:33:15.554Z,81.29
2019-05-18T22:35:44.227Z,80.80
2019-05-18T22:38:12.622Z,80.24
2019-05-18T22:40:41.032Z,80.37
2019-05-18T22:43:09.429Z,81.94
2019-05-18T22:45:37.820Z,81.65
2019-05-18T22:48:06.243Z,80.90
2019-05-18T22:50:34.640Z,80.08
2019-05-18T22:53:03.015Z,80.69
2019-05-18T22:55:31.431Z,80.96
2019-05-18T22:57:59.827Z,81.26
2019-05-18T23:00:28.225Z,82.00
2019-05-18T23:02:56.726Z,81.99
2019-05-18T23:05:25.110Z,81.96
2019-05-18T23:07:53.503Z,81.73
2019-05-18T23:10:21.999Z,82.13
2019-05-18T23:12:50.386Z,81.51
2019-05-18T23:15:19.146Z,81.01
2019-05-18T23:17:47.817Z,80.46
2019-05-18T23:20:16.306Z,80.36
2019-05-18T23:22:44.952Z,80.18
2019-05-18T23:25:13.578Z,80.26
2019-05-18T23:27:41.980Z,81.16
2019-05-18T23:30:11.223Z,80.13
2019-05-18T23:32:39.695Z,79.86
2019-05-18T23:35:08.234Z,79.45
2019-05-18T23:37:36.626Z,79.40
2019-05-18T23:40:06.184Z,79.08
2019-05-18T23:42:34.587Z,79.35
2019-05-18T23:45:03.134Z,79.92
2019-05-18T23:47:31.635Z,79.96
2019-05-18T23:50:00.031Z,79.72
2019-05-18T23:52:28.419Z,79.95
2019-05-18T23:54:56.841Z,80.09
2019-05-18T23:57:25.252Z,80.46
2019-05-18T23:59:53.633Z,81.60
